createdAt,value
2022-09-12T00:06:22.608Z,4.60
2022-09-12T00:16:24.564Z,6.07
2022-09-12T00:26:25.924Z,4.40
2022-09-12T00:36:27.129Z,4.50
2022-09-12T00:46:28.399Z,4.57
2022-09-12T00:56:29.661Z,4.38
2022-09-12T01:06:30.889Z,5.15
2022-09-12T01:16:32.167Z,4.40
2022-09-12T01:26:33.395Z,4.30
2022-09-12T01:36:34.700Z,3.85
2022-09-12T01:46:35.956Z,4.95
2022-09-12T01:56:37.179Z,4.90
2022-09-12T02:06:38.393Z,4.78
2022-09-12T02:16:39.685Z,4.43
2022-09-12T02:26:41.025Z,4.07
2022-09-12T02:36:42.260Z,4.07
2022-09-12T02:46:43.535Z,4.10
2022-09-12T02:56:44.747Z,5.07
2022-09-12T03:06:45.972Z,4.13
2022-09-12T03:16:47.272Z,4.90
2022-09-12T03:26:48.546Z,3.95
2022-09-12T03:36:49.779Z,3.80
2022-09-12T03:46:51.011Z,4.10
2022-09-12T03:56:52.226Z,4.00
2022-09-12T04:06:53.454Z,4.63
2022-09-12T04:16:54.716Z,4.53
2022-09-12T04:26:56.000Z,4.40
2022-09-12T04:36:57.235Z,4.25
2022-09-12T04:46:58.481Z,4.00
2022-09-12T04:56:59.708Z,4.35
2022-09-12T05:07:00.955Z,4.40
2022-09-12T05:17:02.340Z,4.85
2022-09-12T05:27:03.643Z,5.45
2022-09-12T05:37:04.888Z,3.90
2022-09-12T05:47:06.229Z,4.38
2022-09-12T05:57:07.546Z,5.47
2022-09-12T06:07:08.782Z,5.43
2022-09-12T06:17:10.035Z,4.35
2022-09-12T06:27:11.261Z,5.65
2022-09-12T06:37:12.625Z,6.60
2022-09-12T06:47:14.000Z,4.63
2022-09-12T06:57:15.264Z,5.43
2022-09-12T07:07:16.667Z,7.15
2022-09-12T07:17:19.131Z,4.05
2022-09-12T07:27:20.367Z,5.30
2022-09-12T07:37:23.276Z,4.60
2022-09-12T07:47:31.119Z,3.60
2022-09-12T07:57:39.910Z,3.85
2022-09-12T08:07:47.992Z,4.30
2022-09-12T08:17:55.963Z,3.70
2022-09-12T08:28:03.957Z,3.38
2022-09-12T08:38:14.860Z,3.42
2022-09-12T08:48:22.919Z,3.80
2022-09-12T08:58:31.012Z,3.10
2022-09-12T09:08:41.158Z,3.47
2022-09-12T09:18:45.320Z,2.47
2022-09-12T09:28:55.719Z,3.33
2022-09-12T09:39:02.971Z,3.03
2022-09-12T09:49:10.953Z,3.20
2022-09-12T09:59:18.967Z,4.07
2022-09-12T10:09:26.914Z,4.28
2022-09-12T10:19:35.022Z,3.83
2022-09-12T10:29:43.991Z,3.70
2022-09-12T10:39:54.322Z,3.42
2022-09-12T10:50:01.969Z,2.85
2022-09-12T11:00:08.049Z,2.60
2022-09-12T11:10:16.988Z,3.35
2022-09-12T11:20:24.998Z,2.55
2022-09-12T11:30:34.049Z,3.00
2022-09-12T11:40:46.184Z,3.30
2022-09-12T11:50:51.127Z,2.47
2022-09-12T12:00:58.020Z,2.53
2022-09-12T12:11:06.041Z,2.92
2022-09-12T12:21:17.031Z,2.88
2022-09-12T12:31:25.048Z,2.47
2022-09-12T12:41:35.799Z,2.53
2022-09-12T12:51:37.257Z,2.60
2022-09-12T13:01:51.514Z,2.33
2022-09-12T13:11:56.122Z,2.40
2022-09-12T13:22:03.827Z,2.15
2022-09-12T13:32:13.022Z,2.00
2022-09-12T13:42:21.159Z,3.33
2022-09-12T13:52:28.730Z,2.38
2022-09-12T14:02:37.112Z,2.08
2022-09-12T14:12:44.859Z,1.70
2022-09-12T14:22:54.031Z,1.80
2022-09-12T14:33:01.994Z,1.85
2022-09-12T14:43:09.274Z,2.10
2022-09-12T14:53:19.347Z,1.52
2022-09-12T15:03:27.016Z,1.70
2022-09-12T15:13:34.997Z,2.30
2022-09-12T15:23:44.244Z,2.25
2022-09-12T15:33:53.418Z,2.03
2022-09-12T15:44:01.023Z,2.40
2022-09-12T15:54:08.006Z,2.22
2022-09-12T16:04:15.862Z,2.15
2022-09-12T16:14:24.009Z,2.20
2022-09-12T16:24:34.097Z,1.90
2022-09-12T16:44:54.207Z,3.55
2022-09-12T16:54:59.114Z,2.30
2022-09-12T17:05:07.206Z,2.75
2022-09-12T17:15:15.123Z,3.00
2022-09-12T17:25:23.032Z,2.80
2022-09-12T17:35:31.197Z,2.83
2022-09-12T17:45:39.201Z,2.90
2022-09-12T17:55:40.524Z,4.35
2022-09-12T18:05:41.842Z,2.63
2022-09-12T18:15:43.118Z,2.80
2022-09-12T18:25:44.407Z,2.90
2022-09-12T18:35:45.919Z,2.85
2022-09-12T18:45:47.213Z,2.72
2022-09-12T18:55:48.437Z,3.08
2022-09-12T19:05:49.761Z,4.47
2022-09-12T19:15:51.144Z,4.03
2022-09-12T19:25:52.525Z,3.95
2022-09-12T19:35:53.883Z,3.50
2022-09-12T19:45:55.244Z,4.45
2022-09-12T19:55:56.631Z,3.03
2022-09-12T20:05:57.888Z,6.20
2022-09-12T20:15:59.370Z,3.63
2022-09-12T20:26:00.798Z,3.20
2022-09-12T20:36:02.031Z,3.58
2022-09-12T20:46:03.336Z,3.80
2022-09-12T20:56:04.765Z,4.20
2022-09-12T21:06:06.114Z,4.75
2022-09-12T21:16:07.508Z,4.03
2022-09-12T21:26:08.833Z,4.03
2022-09-12T21:36:10.165Z,4.45
2022-09-12T21:46:11.462Z,3.42
2022-09-12T21:56:12.725Z,4.90
2022-09-12T22:06:14.005Z,3.25
2022-09-12T22:16:15.297Z,5.53
2022-09-12T22:26:16.630Z,4.65
2022-09-12T22:36:17.889Z,4.93
2022-09-12T22:46:19.202Z,3.80
2022-09-12T22:56:20.464Z,4.60
2022-09-12T23:06:21.720Z,3.95
2022-09-12T23:16:22.952Z,3.90
2022-09-12T23:26:24.215Z,3.95
2022-09-12T23:36:25.429Z,3.42
2022-09-12T23:46:26.668Z,3.05
2022-09-12T23:56:27.932Z,3.55
